createdAt,value
2023-03-22T00:01:10.179Z,11.88
2023-03-22T00:03:36.980Z,11.87
2023-03-22T00:06:03.657Z,11.86
2023-03-22T00:08:30.309Z,11.78
2023-03-22T00:10:56.889Z,11.86
2023-03-22T00:13:33.381Z,11.89
2023-03-22T00:16:02.798Z,11.94
2023-03-22T00:18:29.460Z,11.66
2023-03-22T00:20:57.303Z,11.71
2023-03-22T00:23:24.442Z,11.72
2023-03-22T00:25:51.342Z,11.97
2023-03-22T00:28:18.304Z,11.76
2023-03-22T00:30:58.638Z,11.53
2023-03-22T00:33:27.306Z,11.89
2023-03-22T00:35:59.494Z,11.68
2023-03-22T00:38:41.255Z,11.77
2023-03-22T00:41:09.769Z,11.88
2023-03-22T00:43:37.225Z,12.04
2023-03-22T00:46:04.029Z,11.88
2023-03-22T00:48:31.454Z,11.65
2023-03-22T00:50:58.259Z,11.88
2023-03-22T00:53:24.933Z,11.51
2023-03-22T00:55:51.730Z,11.66
2023-03-22T00:58:18.682Z,11.55
2023-03-22T01:00:45.680Z,11.75
2023-03-22T01:03:14.247Z,11.68
2023-03-22T01:05:45.262Z,11.78
2023-03-22T01:08:14.894Z,11.83
2023-03-22T01:10:42.323Z,11.70
2023-03-22T01:13:09.876Z,11.62
2023-03-22T01:15:36.981Z,11.51
2023-03-22T01:18:04.102Z,11.55
2023-03-22T01:20:31.956Z,11.74
2023-03-22T01:22:58.901Z,11.89
2023-03-22T01:25:25.805Z,11.98
2023-03-22T01:27:55.581Z,11.96
2023-03-22T01:30:22.199Z,11.67
2023-03-22T01:32:49.264Z,11.87
2023-03-22T01:35:17.473Z,11.99
2023-03-22T01:37:44.123Z,12.02
2023-03-22T01:40:13.211Z,12.23
2023-03-22T01:42:40.264Z,11.96
2023-03-22T01:45:15.513Z,11.85
2023-03-22T01:47:47.696Z,11.86
2023-03-22T01:50:14.774Z,12.12
2023-03-22T01:52:44.094Z,11.80
2023-03-22T01:55:18.373Z,11.90
2023-03-22T01:57:46.985Z,11.80
2023-03-22T02:00:19.039Z,11.71
2023-03-22T02:03:06.229Z,11.61
2023-03-22T02:05:42.212Z,11.89
2023-03-22T02:08:09.000Z,11.94
2023-03-22T02:10:55.057Z,11.74
2023-03-22T02:13:34.906Z,11.92
2023-03-22T02:16:53.264Z,11.90
2023-03-22T02:19:19.832Z,11.86
2023-03-22T02:21:49.530Z,11.55
2023-03-22T02:24:29.775Z,11.45
2023-03-22T02:27:09.184Z,11.76
2023-03-22T02:29:45.286Z,11.67
2023-03-22T02:32:12.386Z,11.50
2023-03-22T02:34:57.891Z,11.62
2023-03-22T02:37:37.185Z,11.68
2023-03-22T02:40:11.562Z,11.62
2023-03-22T02:42:43.886Z,11.92
2023-03-22T02:45:13.617Z,11.56
2023-03-22T02:47:43.405Z,11.62
2023-03-22T02:50:14.069Z,11.54
2023-03-22T02:52:40.701Z,11.60
2023-03-22T02:55:09.985Z,11.44
2023-03-22T02:57:36.600Z,11.55
2023-03-22T03:00:08.785Z,11.65
2023-03-22T03:02:36.863Z,11.87
2023-03-22T03:05:03.918Z,11.85
2023-03-22T03:07:31.190Z,11.76
2023-03-22T03:09:58.409Z,11.70
2023-03-22T03:12:28.667Z,11.94
2023-03-22T03:14:56.999Z,11.62
2023-03-22T03:17:42.405Z,11.67
2023-03-22T03:20:30.847Z,11.81
2023-03-22T03:23:14.644Z,11.64
2023-03-22T03:25:48.959Z,11.67
2023-03-22T03:28:30.205Z,11.66
2023-03-22T03:31:03.865Z,11.58
2023-03-22T03:33:32.941Z,11.62
2023-03-22T03:36:06.804Z,11.65
2023-03-22T03:38:44.964Z,11.79
2023-03-22T03:41:14.490Z,11.83
2023-03-22T03:43:42.504Z,11.70
2023-03-22T03:46:09.591Z,11.64
2023-03-22T03:48:37.515Z,11.66
2023-03-22T03:51:04.532Z,11.55
2023-03-22T03:53:31.528Z,11.73
2023-03-22T03:56:00.355Z,11.78
2023-03-22T03:58:33.891Z,11.85
2023-03-22T04:01:03.086Z,11.70
2023-03-22T04:04:01.284Z,11.48
2023-03-22T04:06:27.965Z,11.85
2023-03-22T04:09:01.819Z,11.76
2023-03-22T04:11:32.413Z,11.87
2023-03-22T04:14:01.822Z,11.74
2023-03-22T04:16:32.255Z,11.84
2023-03-22T04:18:59.030Z,11.88
2023-03-22T04:21:25.646Z,11.79
2023-03-22T04:23:58.039Z,12.00
2023-03-22T04:26:29.439Z,12.02
2023-03-22T04:29:22.076Z,11.81
2023-03-22T04:31:53.564Z,11.55
2023-03-22T04:34:28.610Z,11.60
2023-03-22T04:37:06.210Z,11.51
2023-03-22T04:39:36.334Z,11.53
2023-03-22T04:42:21.735Z,11.50
2023-03-22T04:44:58.470Z,11.57
2023-03-22T04:47:25.325Z,11.67
2023-03-22T04:49:52.224Z,11.59
2023-03-22T04:52:18.988Z,11.58
2023-03-22T04:54:52.185Z,11.54
2023-03-22T04:57:18.893Z,11.40
2023-03-22T04:59:48.107Z,11.76
2023-03-22T05:02:14.725Z,11.80
2023-03-22T05:04:43.422Z,11.84
2023-03-22T05:07:23.953Z,11.77
2023-03-22T05:09:56.640Z,11.58
2023-03-22T05:12:23.936Z,11.80
2023-03-22T05:14:56.026Z,11.63
2023-03-22T05:17:29.823Z,11.77
2023-03-22T05:19:58.011Z,11.95
2023-03-22T05:22:25.192Z,11.78
2023-03-22T05:24:54.042Z,11.56
2023-03-22T05:27:31.373Z,11.56
2023-03-22T05:30:07.467Z,11.72
2023-03-22T05:32:47.544Z,11.30
2023-03-22T05:35:14.282Z,11.57
2023-03-22T05:38:10.821Z,11.57
2023-03-22T05:40:42.349Z,11.41
2023-03-22T05:43:08.979Z,11.64
2023-03-22T05:45:38.000Z,11.42
2023-03-22T05:48:13.158Z,11.57
2023-03-22T05:50:40.620Z,11.59
2023-03-22T05:53:07.719Z,11.50
2023-03-22T05:56:00.758Z,11.41
2023-03-22T05:58:31.315Z,11.64
2023-03-22T06:01:01.113Z,11.51
2023-03-22T06:03:46.277Z,11.66
2023-03-22T06:06:22.207Z,11.89
2023-03-22T06:09:10.681Z,11.74
2023-03-22T06:11:42.847Z,11.95
2023-03-22T06:14:09.517Z,11.70
2023-03-22T06:16:53.103Z,11.93
2023-03-22T06:19:22.479Z,11.89
2023-03-22T06:21:49.150Z,11.92
2023-03-22T06:24:17.511Z,12.00
2023-03-22T06:26:45.650Z,12.12
2023-03-22T06:29:13.912Z,12.18
2023-03-22T06:31:40.667Z,12.25
2023-03-22T06:34:08.333Z,12.17
2023-03-22T06:36:42.404Z,12.05
2023-03-22T06:39:15.569Z,11.96
2023-03-22T06:41:44.356Z,12.25
2023-03-22T06:44:11.445Z,12.50
2023-03-22T06:46:50.134Z,12.42
2023-03-22T06:49:34.031Z,12.49
2023-03-22T06:52:00.784Z,12.27
2023-03-22T06:54:28.011Z,12.39
2023-03-22T06:56:54.718Z,12.35
2023-03-22T06:59:24.365Z,12.42
2023-03-22T07:01:51.040Z,12.40
2023-03-22T07:04:17.817Z,12.57
2023-03-22T07:06:48.819Z,12.53
2023-03-22T07:09:15.902Z,12.45
2023-03-22T07:11:42.844Z,12.74
2023-03-22T07:14:09.622Z,12.90
2023-03-22T07:17:05.043Z,13.05
2023-03-22T07:19:34.853Z,12.68
2023-03-22T07:22:06.616Z,12.91
2023-03-22T07:24:33.795Z,12.80
2023-03-22T07:27:02.221Z,12.81
2023-03-22T07:29:29.441Z,12.76
2023-03-22T07:31:56.898Z,13.05
2023-03-22T07:34:42.602Z,13.36
2023-03-22T07:37:15.146Z,13.10
2023-03-22T07:39:42.100Z,13.37
2023-03-22T07:42:09.617Z,13.44
2023-03-22T07:44:56.662Z,13.60
2023-03-22T07:47:39.470Z,13.49
2023-03-22T07:50:19.561Z,13.56
2023-03-22T07:52:53.436Z,13.63
2023-03-22T07:55:20.093Z,13.46
2023-03-22T07:57:46.803Z,13.42
2023-03-22T08:00:13.949Z,13.58
2023-03-22T08:02:47.103Z,13.46
2023-03-22T08:05:30.932Z,13.56
2023-03-22T08:08:01.382Z,13.73
2023-03-22T08:10:28.217Z,13.66
2023-03-22T08:12:55.448Z,13.85
2023-03-22T08:15:25.499Z,14.27
2023-03-22T08:17:53.029Z,14.48
2023-03-22T08:20:47.259Z,14.66
2023-03-22T12:53:50.598Z,20.25
2023-03-22T13:00:23.306Z,19.12
2023-03-22T13:24:06.613Z,19.42
2023-03-22T13:27:26.691Z,20.21
2023-03-22T13:46:21.103Z,18.00
